createdAt,value
2023-02-19T00:01:17.694Z,93.89
2023-02-19T00:03:49.471Z,93.94
2023-02-19T00:06:17.318Z,94.03
2023-02-19T00:08:48.160Z,93.69
2023-02-19T00:11:17.628Z,93.48
2023-02-19T00:13:46.620Z,93.58
2023-02-19T00:16:15.985Z,93.25
2023-02-19T00:18:44.773Z,94.01
2023-02-19T00:21:13.269Z,93.85
2023-02-19T00:23:41.075Z,93.44
2023-02-19T00:26:18.268Z,93.27
2023-02-19T00:28:47.704Z,93.29
2023-02-19T00:31:20.223Z,93.20
2023-02-19T00:33:48.497Z,93.03
2023-02-19T00:36:16.688Z,92.91
2023-02-19T00:38:45.232Z,92.88
2023-02-19T00:41:13.721Z,93.01
2023-02-19T00:43:41.623Z,93.44
2023-02-19T00:46:09.449Z,93.38
2023-02-19T00:48:37.295Z,93.63
2023-02-19T00:51:05.409Z,93.30
2023-02-19T00:53:33.230Z,93.00
2023-02-19T00:56:00.918Z,93.10
2023-02-19T00:58:28.724Z,93.01
2023-02-19T01:00:56.746Z,93.14
2023-02-19T01:03:24.946Z,93.30
2023-02-19T01:05:53.174Z,93.36
2023-02-19T01:08:20.975Z,93.16
2023-02-19T01:10:48.754Z,92.99
2023-02-19T01:13:16.965Z,93.18
2023-02-19T01:15:44.851Z,92.97
2023-02-19T01:18:12.757Z,93.01
2023-02-19T01:20:41.395Z,93.42
2023-02-19T01:23:11.158Z,94.06
2023-02-19T01:25:39.754Z,94.01
2023-02-19T01:28:07.963Z,94.42
2023-02-19T01:30:36.493Z,94.45
2023-02-19T01:33:04.939Z,93.78
2023-02-19T01:35:33.058Z,93.50
2023-02-19T01:38:00.770Z,93.52
2023-02-19T01:40:28.625Z,93.78
2023-02-19T01:42:56.418Z,93.71
2023-02-19T01:45:31.511Z,93.74
2023-02-19T01:48:03.203Z,93.31
2023-02-19T01:50:34.688Z,93.06
2023-02-19T01:53:03.543Z,93.18
2023-02-19T01:55:31.803Z,93.24
2023-02-19T01:58:01.572Z,93.32
2023-02-19T02:00:29.499Z,93.97
2023-02-19T02:02:58.095Z,93.74
2023-02-19T02:05:47.684Z,94.28
2023-02-19T02:08:16.668Z,93.68
2023-02-19T02:10:44.871Z,93.62
2023-02-19T02:13:12.914Z,93.97
2023-02-19T02:15:50.102Z,94.34
2023-02-19T02:18:17.978Z,94.50
2023-02-19T02:20:58.558Z,94.28
2023-02-19T02:23:35.220Z,94.00
2023-02-19T02:26:06.239Z,93.88
2023-02-19T02:28:37.304Z,93.74
2023-02-19T02:31:19.987Z,93.71
2023-02-19T02:33:53.693Z,93.88
2023-02-19T02:36:31.256Z,94.06
2023-02-19T02:39:00.161Z,94.37
2023-02-19T02:41:27.923Z,93.77
2023-02-19T02:43:55.680Z,93.59
2023-02-19T02:46:28.070Z,93.34
2023-02-19T02:49:03.466Z,93.50
2023-02-19T02:51:33.545Z,93.58
2023-02-19T02:54:09.709Z,93.68
2023-02-19T02:56:38.078Z,93.34
2023-02-19T02:59:08.741Z,93.33
2023-02-19T03:01:42.980Z,93.32
2023-02-19T03:04:14.365Z,93.33
2023-02-19T03:06:43.605Z,93.23
2023-02-19T03:09:15.172Z,93.32
2023-02-19T03:11:45.382Z,93.32
2023-02-19T03:14:16.405Z,93.41
2023-02-19T03:16:46.539Z,93.72
2023-02-19T03:19:15.936Z,93.84
2023-02-19T03:21:45.857Z,93.72
2023-02-19T03:24:15.066Z,93.46
2023-02-19T03:26:43.958Z,93.22
2023-02-19T03:29:12.025Z,93.20
2023-02-19T03:31:43.540Z,93.21
2023-02-19T03:34:16.069Z,93.19
2023-02-19T03:36:51.380Z,93.18
2023-02-19T03:39:22.185Z,93.31
2023-02-19T03:41:56.365Z,93.11
2023-02-19T03:44:44.951Z,93.11
2023-02-19T03:47:17.341Z,93.27
2023-02-19T03:50:11.146Z,93.43
2023-02-19T03:52:51.051Z,93.38
2023-02-19T03:55:32.205Z,93.18
2023-02-19T03:58:19.293Z,93.21
2023-02-19T04:00:55.272Z,93.39
2023-02-19T04:03:33.316Z,93.30
2023-02-19T04:06:03.097Z,93.37
2023-02-19T04:08:33.776Z,93.64
2023-02-19T04:11:04.583Z,93.41
2023-02-19T04:13:43.704Z,93.36
2023-02-19T04:16:15.570Z,93.76
2023-02-19T04:18:44.247Z,94.04
2023-02-19T04:21:12.812Z,93.85
2023-02-19T04:23:43.102Z,93.87
2023-02-19T04:26:11.645Z,93.77
2023-02-19T04:28:39.588Z,94.10
2023-02-19T04:31:07.419Z,94.08
2023-02-19T04:33:35.253Z,94.05
2023-02-19T04:36:03.100Z,93.74
2023-02-19T04:38:30.844Z,93.90
2023-02-19T04:40:58.593Z,93.90
2023-02-19T04:43:26.290Z,93.71
2023-02-19T04:45:54.121Z,93.63
2023-02-19T04:48:21.916Z,93.75
2023-02-19T04:50:49.728Z,93.68
2023-02-19T04:53:17.556Z,93.94
2023-02-19T04:55:45.271Z,94.48
2023-02-19T04:58:12.985Z,93.96
2023-02-19T05:00:40.749Z,93.92
2023-02-19T05:03:08.454Z,94.12
2023-02-19T05:05:36.244Z,93.88
2023-02-19T05:08:04.103Z,94.06
2023-02-19T05:10:31.770Z,94.37
2023-02-19T05:12:59.502Z,93.98
2023-02-19T05:15:27.345Z,93.90
2023-02-19T05:17:55.290Z,94.04
2023-02-19T05:20:23.094Z,93.83
2023-02-19T05:22:51.012Z,93.75
2023-02-19T05:25:18.795Z,93.82
2023-02-19T05:27:46.471Z,93.79
2023-02-19T05:30:14.176Z,93.85
2023-02-19T05:32:42.307Z,93.73
2023-02-19T05:35:10.017Z,93.76
2023-02-19T05:37:37.731Z,93.72
2023-02-19T05:40:05.697Z,93.86
2023-02-19T05:42:33.447Z,93.83
2023-02-19T05:45:01.259Z,93.74
2023-02-19T05:47:29.764Z,93.81
2023-02-19T05:49:57.455Z,93.94
2023-02-19T05:52:25.346Z,94.02
2023-02-19T05:54:53.093Z,94.41
2023-02-19T05:57:20.742Z,94.21
2023-02-19T05:59:48.427Z,94.16
2023-02-19T06:02:16.162Z,94.03
2023-02-19T06:04:43.948Z,94.19
2023-02-19T06:07:11.693Z,94.23
2023-02-19T06:09:39.531Z,93.99
2023-02-19T06:12:07.269Z,93.77
2023-02-19T06:14:35.016Z,93.71
2023-02-19T06:17:02.779Z,94.00
2023-02-19T06:19:30.550Z,94.25
2023-02-19T06:21:58.629Z,93.86
2023-02-19T06:24:26.475Z,93.99
2023-02-19T06:26:54.190Z,94.18
2023-02-19T06:29:21.907Z,94.38
2023-02-19T06:31:49.658Z,94.26
2023-02-19T06:34:17.582Z,94.07
2023-02-19T06:36:45.471Z,93.83
2023-02-19T06:39:13.227Z,93.92
2023-02-19T06:41:41.042Z,93.75
2023-02-19T06:44:09.069Z,93.74
2023-02-19T06:46:36.930Z,93.93
2023-02-19T06:49:05.181Z,93.86
2023-02-19T06:51:33.101Z,93.91
2023-02-19T06:54:00.820Z,93.77
2023-02-19T06:56:33.077Z,93.83
2023-02-19T06:59:02.085Z,93.76
2023-02-19T07:01:30.567Z,93.66
2023-02-19T07:03:58.639Z,93.71
2023-02-19T07:06:26.849Z,93.81
2023-02-19T07:08:55.283Z,93.69
2023-02-19T07:11:23.343Z,93.79
2023-02-19T07:13:54.856Z,93.80
2023-02-19T07:16:23.298Z,93.70
2023-02-19T07:18:51.019Z,93.87
2023-02-19T07:21:19.042Z,93.94
2023-02-19T07:23:46.888Z,94.80
2023-02-19T07:26:16.195Z,94.34
2023-02-19T07:28:44.769Z,94.30
2023-02-19T07:31:13.104Z,94.34
2023-02-19T07:33:43.219Z,94.32
2023-02-19T07:36:11.504Z,94.16
2023-02-19T07:38:39.356Z,94.49
2023-02-19T07:41:07.238Z,93.87
2023-02-19T07:43:36.004Z,93.62
2023-02-19T07:46:11.858Z,93.31
2023-02-19T07:48:40.630Z,93.25
2023-02-19T07:51:11.640Z,93.62
2023-02-19T07:53:39.497Z,93.72
2023-02-19T07:56:08.351Z,93.42
2023-02-19T07:58:36.295Z,93.23
2023-02-19T08:01:11.221Z,93.16
2023-02-19T08:03:39.307Z,93.60
2023-02-19T08:06:07.964Z,93.87
2023-02-19T08:08:35.754Z,93.73
2023-02-19T08:11:05.072Z,93.60
2023-02-19T08:13:32.834Z,93.63
2023-02-19T08:16:18.233Z,94.11
2023-02-19T08:18:48.263Z,94.13
2023-02-19T08:21:16.281Z,94.23
2023-02-19T08:23:44.158Z,94.38
2023-02-19T08:26:12.019Z,94.86
2023-02-19T08:28:39.867Z,94.89
2023-02-19T08:31:09.178Z,94.48
2023-02-19T08:33:37.925Z,93.78
2023-02-19T08:36:08.466Z,93.83
2023-02-19T08:38:37.998Z,93.74
2023-02-19T08:41:10.958Z,93.64
2023-02-19T08:43:39.199Z,93.30
2023-02-19T08:46:07.327Z,93.16
2023-02-19T08:48:35.408Z,93.20
2023-02-19T08:51:04.973Z,93.30
2023-02-19T08:53:32.831Z,93.52
2023-02-19T08:56:07.348Z,93.55
2023-02-19T08:58:35.370Z,93.51
2023-02-19T09:01:03.947Z,93.51
2023-02-19T09:03:31.862Z,93.56
2023-02-19T09:05:59.724Z,93.42
2023-02-19T09:08:28.109Z,93.47
2023-02-19T09:11:02.980Z,93.57
2023-02-19T09:13:31.263Z,93.34
2023-02-19T09:15:59.230Z,93.66
2023-02-19T09:18:27.246Z,93.62
2023-02-19T09:20:54.974Z,93.37
2023-02-19T09:23:22.774Z,93.26
2023-02-19T09:25:56.781Z,93.09
2023-02-19T09:28:24.642Z,93.03
2023-02-19T09:30:52.437Z,92.91
2023-02-19T09:33:20.476Z,93.11
2023-02-19T09:35:48.379Z,93.24
2023-02-19T09:38:16.413Z,92.95
2023-02-19T09:40:44.775Z,93.00
2023-02-19T09:43:16.915Z,93.09
2023-02-19T09:45:44.792Z,93.18
2023-02-19T09:48:13.038Z,93.25
2023-02-19T09:50:45.763Z,93.29
2023-02-19T09:53:23.635Z,93.06
2023-02-19T09:55:53.421Z,91.25
2023-02-19T09:58:30.904Z,90.55
2023-02-19T10:01:00.372Z,90.83
2023-02-19T10:03:33.274Z,91.00
2023-02-19T10:06:05.214Z,90.89
2023-02-19T10:08:34.368Z,90.64
2023-02-19T10:11:03.549Z,90.75
2023-02-19T10:13:39.873Z,91.06
2023-02-19T10:16:11.721Z,91.41
2023-02-19T10:18:41.611Z,91.37
2023-02-19T10:21:12.496Z,91.10
2023-02-19T10:23:41.538Z,90.80
2023-02-19T10:26:09.713Z,90.75
2023-02-19T10:28:37.821Z,90.23
2023-02-19T10:31:12.291Z,90.47
2023-02-19T10:33:50.800Z,91.01
2023-02-19T10:36:21.521Z,91.10
2023-02-19T10:38:49.536Z,90.63
2023-02-19T10:41:18.928Z,90.82
2023-02-19T10:43:55.883Z,90.89
2023-02-19T10:46:32.808Z,91.16
2023-02-19T10:49:18.103Z,91.10
2023-02-19T10:51:46.407Z,90.64
2023-02-19T10:54:25.393Z,90.98
2023-02-19T10:56:53.606Z,91.07
2023-02-19T10:59:24.744Z,91.17
2023-02-19T11:01:59.039Z,90.35
2023-02-19T11:04:28.511Z,89.95
2023-02-19T11:06:56.378Z,90.31
2023-02-19T11:09:28.955Z,89.85
2023-02-19T11:11:57.523Z,88.55
2023-02-19T11:14:26.420Z,88.60
2023-02-19T11:16:58.256Z,88.99
2023-02-19T11:19:26.004Z,89.02
2023-02-19T11:21:54.723Z,88.51
2023-02-19T11:24:27.136Z,88.25
2023-02-19T11:26:55.655Z,88.25
2023-02-19T11:29:24.382Z,88.34
2023-02-19T11:31:52.293Z,88.38
2023-02-19T11:34:20.258Z,88.82
2023-02-19T11:36:54.129Z,89.40
2023-02-19T11:39:27.824Z,89.86
2023-02-19T11:41:55.805Z,89.73
2023-02-19T11:44:42.582Z,88.66
2023-02-19T11:47:13.109Z,88.38
2023-02-19T11:49:46.237Z,88.10
2023-02-19T11:52:29.576Z,87.80
2023-02-19T11:55:13.937Z,87.84
2023-02-19T11:57:44.103Z,88.52
2023-02-19T12:00:23.513Z,88.45
2023-02-19T12:03:01.362Z,88.72
2023-02-19T12:05:48.013Z,89.30
2023-02-19T12:08:35.709Z,88.93
2023-02-19T12:11:03.594Z,88.71
2023-02-19T12:13:50.349Z,88.78
2023-02-19T12:16:21.369Z,89.28
2023-02-19T12:19:03.937Z,89.13
2023-02-19T12:21:38.594Z,88.98
2023-02-19T12:24:13.048Z,88.83
2023-02-19T12:26:47.614Z,88.94
2023-02-19T12:29:17.423Z,88.72
2023-02-19T12:31:59.307Z,89.86
2023-02-19T12:34:45.848Z,89.61
2023-02-19T12:37:25.864Z,89.18
2023-02-19T12:40:01.793Z,89.30
2023-02-19T12:42:38.945Z,90.03
2023-02-19T12:45:11.526Z,90.72
2023-02-19T12:47:40.916Z,88.80
2023-02-19T12:50:19.586Z,87.31
2023-02-19T12:52:50.267Z,86.97
2023-02-19T12:55:29.793Z,86.89
2023-02-19T12:57:59.282Z,86.74
2023-02-19T13:00:29.760Z,86.54
2023-02-19T13:03:14.940Z,86.93
2023-02-19T13:06:01.553Z,86.28
2023-02-19T13:08:42.063Z,85.58
2023-02-19T13:11:19.587Z,85.31
2023-02-19T13:13:47.758Z,85.71
2023-02-19T13:16:18.746Z,86.89
2023-02-19T13:18:52.067Z,87.34
2023-02-19T13:21:21.488Z,87.80
2023-02-19T13:23:49.440Z,88.29
2023-02-19T13:26:36.016Z,87.42
2023-02-19T13:29:10.211Z,87.07
2023-02-19T13:32:07.660Z,87.68
2023-02-19T13:34:41.564Z,87.21
2023-02-19T13:37:10.669Z,87.27
2023-02-19T13:39:45.752Z,87.47
2023-02-19T13:42:23.682Z,88.63
2023-02-19T13:44:56.417Z,90.37
2023-02-19T13:47:43.474Z,89.83
2023-02-19T13:50:17.588Z,88.82
2023-02-19T13:52:45.448Z,88.45
2023-02-19T13:55:32.205Z,88.16
2023-02-19T13:58:19.273Z,87.59
2023-02-19T14:00:51.251Z,88.16
2023-02-19T14:03:37.430Z,87.75
2023-02-19T14:06:06.503Z,87.55
2023-02-19T14:08:47.719Z,89.76
2023-02-19T14:11:16.436Z,88.95
2023-02-19T14:13:50.064Z,90.54
2023-02-19T14:16:30.708Z,90.80
2023-02-19T14:18:59.013Z,88.92
2023-02-19T14:21:37.287Z,88.86
2023-02-19T14:24:05.989Z,88.60
2023-02-19T14:26:34.664Z,89.57
2023-02-19T14:29:02.810Z,88.92
2023-02-19T14:31:32.416Z,88.00
2023-02-19T14:34:00.519Z,87.58
2023-02-19T14:36:48.127Z,87.86
2023-02-19T14:39:27.978Z,89.49
2023-02-19T14:42:00.224Z,88.60
2023-02-19T14:44:34.623Z,88.60
2023-02-19T14:47:02.458Z,89.09
2023-02-19T14:49:40.746Z,89.23
2023-02-19T14:52:15.210Z,88.31
2023-02-19T14:54:46.185Z,88.22
2023-02-19T14:57:26.082Z,88.85
2023-02-19T14:59:55.951Z,88.67
2023-02-19T15:02:24.041Z,89.67
2023-02-19T15:04:52.958Z,89.37
2023-02-19T15:07:24.422Z,88.66
2023-02-19T15:09:54.366Z,88.59
2023-02-19T15:12:24.213Z,88.74
2023-02-19T15:14:54.395Z,88.72
2023-02-19T15:17:30.771Z,89.34
2023-02-19T15:20:00.694Z,90.00
2023-02-19T15:22:29.937Z,89.48
2023-02-19T15:25:02.265Z,88.99
2023-02-19T15:27:31.286Z,89.73
2023-02-19T15:30:01.643Z,90.31
2023-02-19T15:32:29.731Z,89.27
2023-02-19T15:34:59.127Z,88.76
2023-02-19T15:37:28.799Z,88.68
2023-02-19T15:39:58.061Z,88.42
2023-02-19T15:42:30.557Z,88.50
2023-02-19T15:45:04.119Z,88.25
2023-02-19T15:47:36.710Z,88.43
2023-02-19T15:50:17.036Z,87.97
2023-02-19T15:53:07.311Z,87.81
2023-02-19T15:55:44.419Z,87.37
2023-02-19T15:58:12.338Z,87.47
2023-02-19T16:00:46.401Z,88.01
2023-02-19T16:03:24.734Z,88.18
2023-02-19T16:06:01.850Z,87.61
2023-02-19T16:08:32.624Z,86.67
2023-02-19T16:11:01.704Z,86.85
2023-02-19T16:13:33.628Z,86.71
2023-02-19T16:16:20.172Z,87.27
2023-02-19T16:18:49.735Z,87.17
2023-02-19T16:21:20.282Z,87.21
2023-02-19T16:23:49.595Z,87.56
2023-02-19T16:26:17.956Z,88.02
2023-02-19T16:28:50.280Z,87.54
2023-02-19T16:31:20.440Z,89.01
2023-02-19T16:33:48.919Z,91.22
2023-02-19T16:36:39.191Z,89.07
2023-02-19T16:39:07.088Z,88.53
2023-02-19T16:41:34.903Z,88.27
2023-02-19T16:44:22.882Z,88.56
2023-02-19T16:47:05.217Z,88.06
2023-02-19T16:49:33.849Z,88.78
2023-02-19T16:52:04.396Z,89.11
2023-02-19T16:54:32.702Z,89.41
2023-02-19T16:57:00.779Z,89.26
2023-02-19T16:59:28.916Z,89.83
2023-02-19T17:01:56.960Z,89.32
2023-02-19T17:04:25.097Z,89.16
2023-02-19T17:06:53.306Z,90.52
2023-02-19T17:09:21.129Z,90.00
2023-02-19T17:11:48.974Z,89.57
2023-02-19T17:14:17.000Z,91.72
2023-02-19T17:16:45.001Z,91.77
2023-02-19T17:19:14.235Z,92.68
2023-02-19T17:21:42.300Z,91.13
2023-02-19T17:24:10.327Z,91.18
2023-02-19T17:26:38.380Z,90.55
2023-02-19T17:29:11.633Z,89.90
2023-02-19T17:31:39.702Z,89.95
2023-02-19T17:34:07.678Z,88.98
2023-02-19T17:36:35.606Z,89.49
2023-02-19T17:39:04.449Z,89.13
2023-02-19T17:41:33.313Z,90.04
2023-02-19T17:44:01.188Z,90.80
2023-02-19T17:46:29.055Z,91.27
2023-02-19T17:48:57.145Z,91.96
2023-02-19T17:51:25.106Z,92.63
2023-02-19T17:53:52.992Z,92.33
2023-02-19T17:56:22.500Z,91.64
2023-02-19T17:58:50.539Z,91.10
2023-02-19T18:01:18.500Z,90.83
2023-02-19T18:03:46.466Z,90.84
2023-02-19T18:06:14.314Z,90.08
2023-02-19T18:08:52.255Z,90.14
2023-02-19T18:11:21.036Z,89.37
2023-02-19T18:13:49.994Z,89.42
2023-02-19T18:16:18.894Z,89.48
2023-02-19T18:22:01.992Z,89.55
2023-02-19T18:24:31.065Z,89.51
2023-02-19T18:26:59.389Z,89.42
2023-02-19T18:29:28.583Z,90.05
2023-02-19T18:31:56.593Z,89.54
2023-02-19T18:34:24.553Z,89.35
2023-02-19T18:36:52.840Z,89.39
2023-02-19T18:39:20.970Z,89.67
2023-02-19T18:41:49.401Z,89.94
2023-02-19T18:44:18.464Z,90.11
2023-02-19T18:46:46.596Z,89.75
2023-02-19T18:49:14.707Z,90.36
2023-02-19T18:51:43.312Z,89.88
2023-02-19T18:54:11.340Z,89.78
2023-02-19T18:56:45.614Z,89.84
2023-02-19T18:59:13.771Z,89.77
2023-02-19T19:01:42.269Z,90.62
2023-02-19T19:04:10.356Z,90.12
2023-02-19T19:06:38.228Z,90.27
2023-02-19T19:09:06.330Z,90.64
2023-02-19T19:11:35.592Z,91.43
2023-02-19T19:14:03.653Z,90.79
2023-02-19T19:16:31.550Z,90.15
2023-02-19T19:19:00.339Z,89.77
2023-02-19T19:21:28.376Z,89.71
2023-02-19T19:23:56.165Z,89.39
2023-02-19T19:26:23.953Z,89.48
2023-02-19T19:28:51.888Z,90.46
2023-02-19T19:31:20.615Z,90.55
2023-02-19T19:33:49.207Z,90.35
2023-02-19T19:36:21.694Z,90.46
2023-02-19T19:38:50.429Z,90.15
2023-02-19T19:41:19.270Z,89.58
2023-02-19T19:43:47.288Z,89.49
2023-02-19T19:46:15.301Z,89.40
2023-02-19T19:48:43.474Z,91.01
2023-02-19T19:51:11.716Z,91.20
2023-02-19T19:53:39.734Z,91.09
2023-02-19T19:56:08.517Z,91.01
2023-02-19T19:58:37.663Z,90.95
2023-02-19T20:01:06.673Z,90.04
2023-02-19T20:03:35.158Z,89.90
2023-02-19T20:06:03.755Z,90.14
2023-02-19T20:08:50.712Z,90.67
2023-02-19T20:11:19.081Z,90.22
2023-02-19T20:13:47.252Z,91.16
2023-02-19T20:16:15.872Z,91.17
2023-02-19T20:18:44.262Z,91.05
2023-02-19T20:21:15.190Z,90.92
2023-02-19T20:23:43.254Z,90.80
2023-02-19T20:26:11.368Z,91.34
2023-02-19T20:28:39.549Z,91.43
2023-02-19T20:31:09.000Z,91.69
2023-02-19T20:33:36.933Z,91.90
2023-02-19T20:36:04.880Z,91.90
2023-02-19T20:38:32.997Z,91.82
2023-02-19T20:41:12.190Z,91.87
2023-02-19T20:43:40.167Z,91.63
2023-02-19T20:46:09.596Z,91.13
2023-02-19T20:48:38.376Z,90.79
2023-02-19T20:51:06.412Z,90.83
2023-02-19T20:53:34.551Z,90.79
2023-02-19T20:59:03.802Z,90.67
2023-02-19T21:01:32.076Z,89.98
2023-02-19T21:04:00.341Z,89.85
2023-02-19T21:06:30.308Z,89.76
2023-02-19T21:09:17.319Z,90.78
2023-02-19T21:11:46.320Z,91.13
2023-02-19T21:14:14.136Z,91.13
2023-02-19T21:16:42.257Z,91.06
2023-02-19T21:19:10.535Z,90.65
2023-02-19T21:21:54.384Z,90.24
2023-02-19T21:24:22.751Z,90.53
2023-02-19T21:29:52.205Z,90.98
2023-02-19T21:32:19.435Z,91.46
2023-02-19T21:34:45.958Z,91.01
2023-02-19T21:37:12.741Z,91.02
2023-02-19T21:39:39.284Z,90.73
2023-02-19T21:42:05.753Z,90.82
2023-02-19T21:44:32.305Z,90.48
2023-02-19T21:49:44.806Z,90.21
2023-02-19T21:52:11.248Z,90.31
2023-02-19T21:54:37.749Z,90.92
2023-02-19T21:57:04.214Z,90.65
2023-02-19T21:59:30.825Z,90.69
2023-02-19T22:01:57.194Z,91.28
2023-02-19T22:04:23.647Z,91.82
2023-02-19T22:06:53.409Z,91.48
2023-02-19T22:09:19.757Z,91.29
2023-02-19T22:11:46.148Z,91.21
2023-02-19T22:14:12.662Z,90.49
2023-02-19T22:16:39.152Z,90.74
2023-02-19T22:19:05.697Z,90.29
2023-02-19T22:21:32.647Z,90.71
2023-02-19T22:24:00.219Z,91.06
2023-02-19T22:26:28.281Z,91.24
2023-02-19T22:28:55.276Z,91.41
2023-02-19T22:31:22.619Z,91.75
2023-02-19T22:33:50.106Z,91.60
2023-02-19T22:36:22.872Z,91.23
2023-02-19T22:38:49.419Z,90.77
2023-02-19T22:44:01.669Z,91.74
2023-02-19T22:46:29.216Z,92.39
2023-02-19T22:48:56.225Z,91.97
2023-02-19T22:51:23.527Z,91.71
2023-02-19T22:53:51.829Z,91.44
2023-02-19T22:56:19.110Z,92.17
2023-02-19T22:59:08.289Z,91.88
2023-02-19T23:01:35.062Z,92.12
2023-02-19T23:04:01.479Z,92.15
2023-02-19T23:06:32.125Z,91.58
2023-02-19T23:09:01.158Z,91.66
2023-02-19T23:11:28.852Z,91.37
2023-02-19T23:13:55.372Z,91.10
2023-02-19T23:16:21.981Z,91.58
2023-02-19T23:18:48.407Z,91.73
2023-02-19T23:21:15.386Z,91.56
2023-02-19T23:23:42.338Z,90.88
2023-02-19T23:26:09.327Z,90.99
2023-02-19T23:28:35.732Z,91.18
2023-02-19T23:31:02.081Z,90.98
2023-02-19T23:33:29.064Z,91.73
2023-02-19T23:35:55.564Z,91.38
2023-02-19T23:38:21.912Z,90.68
2023-02-19T23:40:48.335Z,90.75
2023-02-19T23:43:14.643Z,91.34
2023-02-19T23:45:40.986Z,91.68
2023-02-19T23:48:07.746Z,91.26
2023-02-19T23:50:34.166Z,92.27
2023-02-19T23:53:00.689Z,93.34
2023-02-19T23:55:27.170Z,92.69
2023-02-19T23:57:53.611Z,92.13
